createdAt,value
2023-06-09T00:00:20.793Z,6.30
2023-06-09T00:04:52.563Z,5.80
2023-06-09T00:09:08.756Z,6.30
2023-06-09T00:13:12.327Z,5.20
2023-06-09T00:17:14.962Z,6.20
2023-06-09T00:21:19.922Z,5.80
2023-06-09T00:25:24.866Z,6.80
2023-06-09T00:29:27.392Z,6.80
2023-06-09T00:33:29.515Z,6.20
2023-06-09T00:37:32.854Z,6.40
2023-06-09T00:41:39.142Z,6.10
2023-06-09T00:45:41.926Z,5.90
2023-06-09T00:49:44.516Z,6.20
2023-06-09T00:53:54.193Z,6.10
2023-06-09T00:58:01.493Z,6.00
2023-06-09T01:02:07.469Z,6.00
2023-06-09T01:06:29.849Z,6.30
2023-06-09T01:11:02.381Z,7.40
2023-06-09T01:15:31.101Z,6.80
2023-06-09T01:19:46.610Z,6.60
2023-06-09T01:24:17.017Z,7.10
2023-06-09T01:28:32.152Z,6.50
2023-06-09T01:32:35.864Z,6.70
2023-06-09T01:36:45.951Z,8.40
2023-06-09T01:40:57.768Z,7.80
2023-06-09T01:45:01.468Z,6.80
2023-06-09T01:49:16.206Z,7.30
2023-06-09T01:53:31.698Z,6.70
2023-06-09T01:57:48.349Z,6.20
2023-06-09T02:01:56.162Z,6.40
2023-06-09T02:06:01.653Z,7.20
2023-06-09T02:10:10.483Z,7.40
2023-06-09T02:14:13.152Z,7.60
2023-06-09T02:18:24.366Z,6.30
2023-06-09T02:22:30.481Z,5.70
2023-06-09T02:26:35.640Z,6.10
2023-06-09T02:30:38.368Z,6.00
2023-06-09T02:34:42.816Z,6.60
2023-06-09T02:38:47.965Z,6.70
2023-06-09T02:42:54.490Z,6.70
2023-06-09T02:47:04.019Z,6.70
2023-06-09T02:51:07.629Z,6.90
2023-06-09T02:55:14.325Z,6.80
2023-06-09T02:59:21.779Z,7.40
2023-06-09T03:03:27.897Z,6.00
2023-06-09T03:07:37.072Z,7.00
2023-06-09T03:11:42.160Z,6.30
2023-06-09T03:15:51.129Z,6.70
2023-06-09T03:19:54.452Z,7.10
2023-06-09T03:23:59.329Z,8.10
2023-06-09T03:28:01.647Z,6.00
2023-06-09T03:32:05.740Z,6.20
2023-06-09T03:36:10.542Z,6.10
2023-06-09T03:40:16.938Z,6.60
2023-06-09T03:44:19.615Z,7.90
2023-06-09T03:48:25.660Z,6.40
2023-06-09T03:52:28.726Z,6.00
2023-06-09T03:56:34.143Z,7.00
2023-06-09T04:00:40.295Z,7.00
2023-06-09T04:05:05.976Z,6.60
2023-06-09T04:09:23.343Z,6.00
2023-06-09T04:13:39.326Z,6.30
2023-06-09T04:17:59.455Z,6.70
2023-06-09T04:22:24.836Z,8.20
2023-06-09T04:26:38.261Z,6.80
2023-06-09T04:30:42.520Z,6.60
2023-06-09T04:34:52.080Z,6.50
2023-06-09T04:39:00.765Z,6.80
2023-06-09T04:43:08.305Z,6.20
2023-06-09T04:47:18.992Z,6.30
2023-06-09T04:51:59.627Z,6.70
2023-06-09T04:56:21.682Z,6.60
2023-06-09T05:00:33.088Z,5.50
2023-06-09T05:04:36.495Z,6.30
2023-06-09T05:08:47.300Z,6.40
2023-06-09T05:12:53.053Z,7.40
2023-06-09T05:16:55.681Z,7.20
2023-06-09T05:20:58.337Z,7.30
2023-06-09T05:25:03.393Z,5.40
2023-06-09T05:29:08.144Z,6.90
2023-06-09T05:33:13.020Z,7.70
2023-06-09T05:37:31.996Z,6.60
2023-06-09T05:41:45.821Z,6.40
2023-06-09T05:46:13.378Z,6.40
2023-06-09T05:50:18.343Z,5.60
2023-06-09T05:54:31.520Z,5.90
2023-06-09T06:06:49.299Z,5.60
2023-06-09T06:10:54.213Z,5.60
2023-06-09T06:14:57.321Z,5.40
2023-06-09T06:18:59.330Z,5.00
2023-06-09T06:23:03.562Z,5.70
2023-06-09T06:27:11.838Z,5.40
2023-06-09T06:31:24.087Z,5.10
2023-06-09T06:35:31.528Z,5.10
2023-06-09T06:40:07.873Z,5.00
2023-06-09T06:44:12.424Z,5.30
2023-06-09T06:48:15.425Z,5.00
2023-06-09T06:52:19.633Z,5.00
2023-06-09T06:56:23.382Z,4.50
2023-06-09T07:00:31.609Z,5.40
2023-06-09T07:04:40.586Z,4.70
2023-06-09T07:08:44.546Z,5.30
2023-06-09T07:12:49.296Z,5.00
2023-06-09T07:16:52.177Z,5.30
2023-06-09T07:20:55.162Z,5.00
2023-06-09T07:25:03.072Z,4.60
2023-06-09T07:29:06.971Z,4.70
2023-06-09T07:33:22.781Z,4.60
2023-06-09T07:37:36.135Z,4.80
2023-06-09T07:41:48.926Z,4.70
2023-06-09T07:45:56.314Z,5.00
2023-06-09T07:50:14.834Z,4.60
2023-06-09T07:54:31.581Z,5.40
2023-06-09T07:58:44.177Z,5.70
2023-06-09T08:03:03.758Z,5.10
2023-06-09T08:07:13.730Z,4.80
2023-06-09T08:11:20.410Z,4.90
2023-06-09T08:15:27.237Z,5.00
2023-06-09T08:19:48.431Z,4.30
2023-06-09T08:28:11.674Z,4.40
2023-06-09T08:32:14.519Z,4.90
2023-06-09T08:36:25.455Z,5.40
2023-06-09T08:40:36.209Z,4.90
2023-06-09T08:45:01.158Z,5.20
2023-06-09T08:49:11.417Z,5.40
2023-06-09T08:53:22.789Z,5.10
2023-06-09T08:57:41.417Z,4.70
2023-06-09T09:02:05.080Z,5.50
2023-06-09T09:06:35.533Z,6.00
2023-06-09T09:10:42.512Z,5.60
2023-06-09T09:14:46.610Z,7.90
2023-06-09T09:19:00.516Z,5.40
2023-06-09T09:23:14.284Z,5.80
2023-06-09T09:27:23.839Z,5.50
2023-06-09T09:31:43.306Z,5.20
2023-06-09T09:35:57.500Z,6.10
2023-06-09T09:40:22.252Z,5.70
2023-06-09T09:44:43.053Z,5.10
2023-06-09T09:49:00.259Z,5.00
2023-06-09T09:53:05.018Z,5.30
2023-06-09T09:57:18.252Z,5.90
2023-06-09T10:01:30.884Z,5.40
2023-06-09T10:05:42.988Z,5.40
2023-06-09T10:09:53.022Z,5.40
2023-06-09T10:13:55.749Z,6.20
2023-06-09T10:18:02.368Z,5.20
2023-06-09T10:22:07.306Z,5.70
2023-06-09T10:26:34.960Z,6.30
2023-06-09T10:30:40.274Z,5.60
2023-06-09T10:35:08.600Z,6.70
2023-06-09T10:39:20.107Z,6.80
2023-06-09T10:58:39.436Z,5.30
2023-06-09T11:02:47.519Z,5.00
2023-06-09T11:07:28.445Z,5.50
2023-06-09T11:11:54.483Z,4.80
2023-06-09T11:16:02.271Z,5.60
2023-06-09T11:20:09.174Z,4.40
2023-06-09T11:24:16.160Z,5.70
2023-06-09T11:28:26.339Z,5.80
2023-06-09T11:32:50.435Z,5.50
2023-06-09T11:36:58.544Z,5.30
2023-06-09T11:41:07.831Z,5.10
2023-06-09T11:45:12.239Z,5.20
2023-06-09T11:49:23.213Z,4.80
2023-06-09T11:53:28.955Z,4.80
2023-06-09T11:57:34.409Z,4.50
2023-06-09T12:01:41.897Z,4.80
2023-06-09T12:05:52.361Z,4.70
2023-06-09T12:09:59.316Z,5.60
2023-06-09T12:14:08.418Z,4.90
2023-06-09T12:18:17.645Z,5.40
2023-06-09T12:22:20.697Z,6.00
2023-06-09T12:26:42.832Z,6.30
2023-06-09T12:30:50.691Z,6.20
2023-06-09T12:35:01.255Z,5.50
2023-06-09T12:39:18.678Z,5.10
2023-06-09T12:43:28.214Z,5.80
2023-06-09T12:47:42.147Z,7.20
2023-06-09T12:51:45.218Z,6.60
2023-06-09T12:55:58.722Z,7.40
2023-06-09T13:00:20.499Z,7.10
2023-06-09T13:04:31.516Z,6.40
2023-06-09T13:08:36.173Z,6.50
2023-06-09T13:12:41.292Z,7.50
2023-06-09T13:16:45.492Z,7.10
2023-06-09T13:20:51.580Z,6.90
2023-06-09T13:24:55.696Z,7.40
2023-06-09T13:29:00.831Z,7.30
2023-06-09T13:33:10.478Z,6.20
2023-06-09T13:37:13.326Z,7.00
2023-06-09T13:41:16.200Z,6.80
2023-06-09T13:45:23.976Z,8.00
2023-06-09T13:49:29.465Z,6.40
2023-06-09T13:53:31.660Z,6.70
2023-06-09T13:57:34.002Z,6.30
2023-06-09T14:01:41.579Z,6.50
2023-06-09T14:05:45.533Z,6.50
2023-06-09T14:09:49.582Z,6.70
2023-06-09T14:13:52.775Z,6.70
2023-06-09T14:17:57.372Z,5.70
2023-06-09T14:22:05.836Z,5.10
2023-06-09T14:26:09.249Z,6.50
2023-06-09T14:30:15.663Z,6.00
2023-06-09T14:34:18.439Z,4.70
2023-06-09T14:38:20.867Z,4.70
2023-06-09T14:42:26.955Z,4.40
2023-06-09T14:46:29.771Z,4.90
2023-06-09T14:50:39.999Z,4.60
2023-06-09T14:54:53.262Z,4.90
2023-06-09T14:59:04.720Z,5.30
2023-06-09T15:03:19.055Z,5.30
2023-06-09T15:07:24.592Z,4.50
2023-06-09T15:11:27.648Z,3.80
2023-06-09T15:15:33.194Z,3.40
2023-06-09T15:19:51.186Z,3.10
2023-06-09T15:23:59.479Z,2.80
2023-06-09T15:28:11.807Z,2.30
2023-06-09T15:32:18.666Z,3.20
2023-06-09T15:40:49.706Z,2.60
2023-06-09T15:45:00.203Z,3.00
2023-06-09T15:49:06.828Z,3.80
2023-06-09T15:53:11.917Z,3.10
2023-06-09T15:57:17.997Z,3.20
2023-06-09T16:01:22.701Z,3.40
2023-06-09T16:05:25.020Z,3.20
2023-06-09T16:09:31.138Z,3.80
2023-06-09T16:13:35.908Z,3.30
2023-06-09T16:17:39.922Z,3.20
2023-06-09T16:21:42.658Z,4.10
2023-06-09T16:25:46.208Z,3.50
2023-06-09T16:29:59.119Z,3.70
2023-06-09T16:34:07.058Z,4.10
2023-06-09T16:38:10.394Z,4.40
2023-06-09T16:42:15.714Z,4.50
2023-06-09T16:46:28.083Z,4.40
2023-06-09T16:50:31.952Z,3.90
2023-06-09T16:54:34.818Z,4.90
2023-06-09T16:58:43.750Z,4.70
2023-06-09T17:02:46.386Z,4.60
2023-06-09T17:06:51.313Z,5.50
2023-06-09T17:10:56.095Z,4.80
2023-06-09T17:15:01.794Z,5.60
2023-06-09T17:19:08.702Z,5.00
2023-06-09T17:23:15.963Z,5.40
2023-06-09T17:27:18.900Z,5.50
2023-06-09T17:31:22.388Z,5.30
2023-06-09T17:35:26.137Z,5.20
2023-06-09T17:39:31.723Z,5.20
2023-06-09T17:48:08.907Z,5.40
2023-06-09T17:52:17.495Z,7.40
2023-06-09T17:56:43.132Z,6.90
2023-06-09T18:00:58.456Z,6.90
2023-06-09T18:05:11.804Z,6.80
2023-06-09T18:09:16.832Z,7.60
2023-06-09T18:13:19.230Z,7.70
2023-06-09T18:22:01.231Z,8.70
2023-06-09T18:26:13.634Z,9.00
2023-06-09T18:30:37.090Z,10.00
2023-06-09T18:35:08.474Z,9.00
2023-06-09T18:39:17.390Z,9.60
2023-06-09T18:43:36.806Z,12.00
2023-06-09T18:48:02.294Z,16.30
2023-06-09T18:56:38.916Z,11.90
2023-06-09T19:00:48.620Z,10.40
2023-06-09T19:04:58.384Z,10.10
2023-06-09T19:09:07.533Z,9.30
2023-06-09T19:13:39.355Z,9.50
2023-06-09T19:18:07.800Z,9.90
2023-06-09T19:22:17.206Z,9.00
2023-06-09T19:26:21.375Z,11.70
2023-06-09T19:30:24.810Z,11.20
2023-06-09T19:34:28.007Z,9.50
2023-06-09T19:38:31.643Z,8.20
2023-06-09T19:42:33.720Z,7.60
2023-06-09T19:46:36.915Z,7.60
2023-06-09T19:50:40.421Z,7.00
2023-06-09T19:54:42.666Z,7.70
2023-06-09T19:58:44.857Z,7.90
2023-06-09T20:02:50.825Z,9.30
2023-06-09T20:06:56.343Z,9.30
2023-06-09T20:10:59.777Z,8.90
2023-06-09T20:15:02.163Z,8.90
2023-06-09T20:19:04.367Z,9.70
2023-06-09T20:23:10.918Z,9.50
2023-06-09T20:27:14.073Z,9.50
2023-06-09T20:31:16.225Z,9.00
2023-06-09T20:35:18.748Z,9.10
2023-06-09T20:39:20.915Z,10.50
2023-06-09T20:43:25.058Z,8.80
2023-06-09T20:47:29.163Z,10.00
2023-06-09T20:51:31.283Z,10.00
2023-06-09T20:55:42.342Z,9.80
2023-06-09T20:59:44.893Z,11.20
2023-06-09T21:03:48.582Z,9.90
2023-06-09T21:07:52.063Z,10.30
2023-06-09T21:11:54.947Z,10.00
2023-06-09T21:15:57.439Z,8.70
2023-06-09T21:19:59.796Z,9.90
2023-06-09T21:24:01.942Z,10.10
2023-06-09T21:28:06.265Z,10.60
2023-06-09T21:32:08.549Z,10.30
2023-06-09T21:36:10.604Z,9.40
2023-06-09T21:40:12.855Z,9.80
2023-06-09T21:44:15.485Z,11.10
2023-06-09T21:48:18.522Z,11.80
2023-06-09T21:52:20.960Z,11.20
2023-06-09T21:56:23.083Z,10.80
2023-06-09T22:00:25.438Z,11.50
2023-06-09T22:04:27.580Z,11.00
2023-06-09T22:08:32.798Z,10.90
2023-06-09T22:12:39.444Z,9.40
2023-06-09T22:16:42.481Z,10.50
2023-06-09T22:20:45.796Z,10.30
2023-06-09T22:24:47.840Z,9.50
2023-06-09T22:28:49.913Z,8.60
2023-06-09T22:32:52.470Z,9.90
2023-06-09T22:36:54.468Z,8.80
2023-06-09T22:40:57.207Z,8.30
2023-06-09T22:44:59.189Z,7.40
2023-06-09T22:49:04.634Z,6.80
2023-06-09T22:53:09.545Z,7.20
2023-06-09T22:57:11.663Z,6.60
2023-06-09T23:01:14.283Z,5.90
2023-06-09T23:05:22.237Z,6.00
2023-06-09T23:09:24.326Z,5.70
2023-06-09T23:13:26.333Z,5.80
2023-06-09T23:17:28.359Z,5.70
2023-06-09T23:21:31.322Z,6.00
2023-06-09T23:25:35.350Z,6.40
2023-06-09T23:29:38.654Z,5.40
2023-06-09T23:33:41.164Z,5.40
2023-06-09T23:37:43.216Z,5.80
2023-06-09T23:41:45.694Z,5.60
2023-06-09T23:45:49.707Z,5.80
2023-06-09T23:49:51.913Z,5.50
2023-06-09T23:53:56.383Z,5.00
2023-06-09T23:57:59.106Z,5.40
